createdAt,value
2023-04-08T00:00:54.231Z,3.70
2023-04-08T00:03:22.397Z,4.60
2023-04-08T00:05:50.464Z,4.10
2023-04-08T00:08:18.392Z,3.77
2023-04-08T00:10:46.292Z,4.07
2023-04-08T00:13:14.948Z,3.93
2023-04-08T00:15:42.992Z,4.07
2023-04-08T00:18:12.461Z,3.77
2023-04-08T00:20:40.528Z,4.30
2023-04-08T00:23:08.463Z,4.00
2023-04-08T00:25:36.440Z,3.70
2023-04-08T00:28:04.356Z,4.13
2023-04-08T00:30:32.303Z,4.13
2023-04-08T00:33:00.339Z,4.40
2023-04-08T00:35:30.198Z,3.73
2023-04-08T00:37:58.153Z,4.20
2023-04-08T00:40:26.069Z,4.17
2023-04-08T00:42:53.977Z,4.20
2023-04-08T00:45:22.044Z,3.97
2023-04-08T00:47:52.862Z,4.93
2023-04-08T00:50:21.404Z,4.20
2023-04-08T00:52:50.743Z,4.37
2023-04-08T00:55:18.688Z,4.60
2023-04-08T00:57:46.806Z,4.30
2023-04-08T01:00:16.105Z,4.97
2023-04-08T01:02:47.295Z,3.67
2023-04-08T01:05:19.331Z,3.30
2023-04-08T01:07:50.500Z,4.23
2023-04-08T01:10:22.440Z,4.10
2023-04-08T01:12:53.686Z,3.67
2023-04-08T01:15:22.249Z,4.47
2023-04-08T01:17:52.116Z,3.87
2023-04-08T01:20:20.442Z,4.00
2023-04-08T01:23:04.752Z,4.10
2023-04-08T01:25:34.290Z,3.97
2023-04-08T01:28:06.205Z,3.77
2023-04-08T01:30:35.802Z,4.17
2023-04-08T01:33:04.139Z,4.03
2023-04-08T01:35:32.548Z,3.60
2023-04-08T01:38:01.343Z,4.07
2023-04-08T01:40:29.281Z,3.73
2023-04-08T01:42:58.256Z,4.33
2023-04-08T01:45:27.831Z,4.07
2023-04-08T01:47:56.700Z,3.93
2023-04-08T01:50:25.260Z,3.90
2023-04-08T01:52:53.830Z,4.23
2023-04-08T01:55:21.916Z,4.17
2023-04-08T01:57:52.145Z,3.90
2023-04-08T02:00:23.465Z,4.23
2023-04-08T02:02:53.234Z,4.17
2023-04-08T02:05:21.523Z,4.07
2023-04-08T02:07:49.642Z,4.60
2023-04-08T02:10:17.673Z,3.80
2023-04-08T02:12:46.080Z,4.37
2023-04-08T02:15:14.980Z,4.33
2023-04-08T02:17:47.309Z,4.10
2023-04-08T02:20:19.864Z,3.57
2023-04-08T02:22:51.029Z,3.70
2023-04-08T02:25:22.268Z,4.07
2023-04-08T02:27:50.787Z,4.83
2023-04-08T02:30:19.498Z,3.43
2023-04-08T02:32:48.648Z,4.30
2023-04-08T02:35:18.568Z,3.47
2023-04-08T02:37:47.962Z,3.60
2023-04-08T02:40:26.525Z,4.73
2023-04-08T02:42:54.585Z,4.13
2023-04-08T02:45:22.718Z,4.07
2023-04-08T02:47:50.640Z,4.27
2023-04-08T02:50:19.916Z,3.73
2023-04-08T02:52:47.819Z,3.97
2023-04-08T02:55:15.729Z,4.37
2023-04-08T02:57:44.188Z,4.00
2023-04-08T03:00:13.371Z,4.30
2023-04-08T03:02:41.483Z,3.77
2023-04-08T03:05:10.457Z,3.90
2023-04-08T03:07:40.037Z,4.10
2023-04-08T03:10:09.203Z,4.03
2023-04-08T03:12:37.103Z,4.00
2023-04-08T03:15:06.277Z,4.27
2023-04-08T03:17:34.794Z,3.93
2023-04-08T03:20:04.860Z,4.10
2023-04-08T03:22:32.972Z,3.80
2023-04-08T03:25:02.286Z,4.20
2023-04-08T03:27:30.170Z,4.33
2023-04-08T03:29:58.135Z,4.23
2023-04-08T03:32:26.385Z,4.23
2023-04-08T03:34:54.319Z,4.00
2023-04-08T03:37:22.205Z,4.37
2023-04-08T03:39:50.103Z,4.60
2023-04-08T03:42:19.439Z,5.20
2023-04-08T03:44:47.332Z,4.23
2023-04-08T03:47:15.383Z,3.77
2023-04-08T03:49:43.286Z,4.50
2023-04-08T03:52:11.180Z,4.50
2023-04-08T03:54:39.097Z,4.20
2023-04-08T03:57:07.048Z,4.73
2023-04-08T03:59:36.517Z,4.80
2023-04-08T04:02:04.501Z,4.80
2023-04-08T04:04:32.661Z,4.60
2023-04-08T04:07:00.760Z,4.63
2023-04-08T04:09:28.680Z,4.60
2023-04-08T04:11:56.635Z,4.50
2023-04-08T04:14:24.505Z,5.03
2023-04-08T04:16:53.758Z,5.00
2023-04-08T04:19:21.814Z,4.83
2023-04-08T04:21:49.725Z,4.53
2023-04-08T04:24:17.649Z,4.83
2023-04-08T04:26:45.547Z,4.87
2023-04-08T04:29:13.440Z,4.97
2023-04-08T04:31:41.435Z,5.57
2023-04-08T04:34:10.757Z,5.00
2023-04-08T04:36:38.639Z,4.93
2023-04-08T04:39:06.554Z,5.87
2023-04-08T04:41:38.855Z,4.63
2023-04-08T04:44:07.112Z,4.50
2023-04-08T04:46:35.153Z,4.87
2023-04-08T04:49:03.120Z,4.87
2023-04-08T04:51:34.185Z,4.40
2023-04-08T04:54:02.109Z,4.40
2023-04-08T04:56:30.022Z,5.07
2023-04-08T04:58:57.948Z,4.73
2023-04-08T05:01:26.182Z,5.50
2023-04-08T05:03:54.135Z,4.53
2023-04-08T05:06:22.068Z,4.63
2023-04-08T05:08:52.011Z,4.80
2023-04-08T05:11:21.811Z,4.43
2023-04-08T05:13:49.898Z,5.40
2023-04-08T05:16:17.944Z,5.00
2023-04-08T05:18:45.953Z,4.73
2023-04-08T05:21:13.869Z,5.10
2023-04-08T05:23:41.753Z,4.47
2023-04-08T05:26:11.415Z,5.37
2023-04-08T05:28:39.308Z,5.87
2023-04-08T05:31:07.299Z,5.87
2023-04-08T05:33:35.232Z,5.77
2023-04-08T05:36:03.236Z,6.67
2023-04-08T05:38:31.139Z,5.13
2023-04-08T05:40:59.086Z,6.30
2023-04-08T05:43:28.367Z,5.57
2023-04-08T05:45:56.272Z,6.37
2023-04-08T05:48:24.237Z,5.33
2023-04-08T05:50:52.202Z,6.43
2023-04-08T05:53:20.093Z,7.17
2023-04-08T05:55:47.989Z,6.07
2023-04-08T05:58:16.087Z,5.83
2023-04-08T06:00:45.383Z,6.67
2023-04-08T06:03:13.542Z,5.43
2023-04-08T06:05:41.806Z,5.27
2023-04-08T06:08:09.732Z,6.40
2023-04-08T06:10:37.636Z,5.87
2023-04-08T06:13:05.566Z,5.97
2023-04-08T06:15:33.648Z,6.50
2023-04-08T06:18:03.053Z,6.43
2023-04-08T06:20:31.364Z,6.80
2023-04-08T06:22:59.252Z,5.67
2023-04-08T06:25:27.371Z,5.57
2023-04-08T06:27:55.275Z,6.07
2023-04-08T06:30:23.432Z,5.67
2023-04-08T06:32:51.430Z,6.13
2023-04-08T06:35:20.919Z,5.90
2023-04-08T06:37:48.804Z,6.90
2023-04-08T06:40:16.730Z,6.43
2023-04-08T06:42:44.624Z,6.47
2023-04-08T06:45:12.786Z,6.50
2023-04-08T06:47:40.742Z,6.57
2023-04-08T06:50:09.392Z,5.63
2023-04-08T06:52:38.696Z,7.53
2023-04-08T06:55:07.417Z,5.97
2023-04-08T06:57:35.359Z,6.43
2023-04-08T07:00:03.464Z,5.93
2023-04-08T07:02:31.459Z,7.30
2023-04-08T07:04:59.642Z,6.23
2023-04-08T07:07:27.579Z,6.37
2023-04-08T07:09:57.000Z,5.53
2023-04-08T07:12:25.016Z,6.60
2023-04-08T07:14:53.188Z,5.83
2023-04-08T07:17:21.135Z,6.80
2023-04-08T07:19:49.642Z,6.20
2023-04-08T07:22:17.542Z,6.10
2023-04-08T07:24:49.773Z,6.20
2023-04-08T07:27:19.151Z,7.20
2023-04-08T07:29:47.067Z,7.37
2023-04-08T07:32:15.091Z,6.80
2023-04-08T07:34:42.967Z,7.07
2023-04-08T07:37:10.866Z,6.63
2023-04-08T07:39:38.769Z,6.93
2023-04-08T07:42:07.150Z,6.70
2023-04-08T07:44:36.484Z,6.53
2023-04-08T07:47:04.414Z,6.50
2023-04-08T07:49:32.320Z,7.03
2023-04-08T07:52:00.220Z,6.80
2023-04-08T07:54:28.127Z,6.80
2023-04-08T07:56:56.995Z,6.57
2023-04-08T07:59:24.985Z,6.83
2023-04-08T08:01:54.566Z,6.63
2023-04-08T08:04:25.799Z,6.03
2023-04-08T08:06:53.873Z,6.33
2023-04-08T08:09:21.808Z,6.73
2023-04-08T08:11:49.672Z,6.43
2023-04-08T08:14:17.600Z,6.10
2023-04-08T08:16:45.751Z,7.00
2023-04-08T08:19:15.032Z,6.53
2023-04-08T08:21:42.953Z,7.40
2023-04-08T08:24:10.854Z,6.77
2023-04-08T08:26:39.033Z,7.00
2023-04-08T08:29:08.619Z,6.40
2023-04-08T08:31:36.919Z,8.33
2023-04-08T08:34:04.882Z,7.83
2023-04-08T08:36:34.829Z,8.30
2023-04-08T08:39:03.045Z,8.40
2023-04-08T08:41:35.261Z,8.23
2023-04-08T08:44:03.872Z,7.60
2023-04-08T08:46:31.827Z,7.43
2023-04-08T08:48:59.780Z,7.40
2023-04-08T08:51:29.076Z,7.17
2023-04-08T08:53:58.359Z,7.50
2023-04-08T08:56:26.459Z,6.43
2023-04-08T08:58:54.803Z,7.07
2023-04-08T09:01:33.184Z,6.63
2023-04-08T09:04:12.701Z,7.10
2023-04-08T09:06:41.293Z,7.83
2023-04-08T09:09:13.449Z,6.67
2023-04-08T09:11:42.592Z,7.13
2023-04-08T09:14:20.840Z,5.93
2023-04-08T09:16:48.863Z,5.97
2023-04-08T09:19:16.834Z,6.43
2023-04-08T09:21:45.028Z,5.90
2023-04-08T09:24:29.993Z,5.83
2023-04-08T09:26:57.917Z,6.60
2023-04-08T09:29:27.614Z,6.17
2023-04-08T09:31:57.730Z,6.37
2023-04-08T09:34:27.554Z,5.13
2023-04-08T09:36:56.711Z,5.83
2023-04-08T09:39:26.443Z,5.17
2023-04-08T09:41:54.976Z,5.53
2023-04-08T09:44:23.626Z,5.30
2023-04-08T09:46:58.108Z,5.33
2023-04-08T09:49:28.316Z,5.73
2023-04-08T09:52:01.068Z,5.20
2023-04-08T09:54:36.400Z,5.67
2023-04-08T09:57:11.610Z,5.30
2023-04-08T09:59:40.410Z,5.37
2023-04-08T10:02:11.428Z,5.30
2023-04-08T10:04:41.096Z,4.63
2023-04-08T10:07:09.957Z,5.13
2023-04-08T10:09:41.540Z,4.90
2023-04-08T10:12:09.489Z,5.27
2023-04-08T10:14:37.372Z,6.00
2023-04-08T10:17:36.885Z,5.00
2023-04-08T10:20:05.514Z,5.37
2023-04-08T10:22:49.853Z,5.03
2023-04-08T10:25:32.597Z,4.97
2023-04-08T10:28:01.629Z,4.90
2023-04-08T10:30:43.088Z,5.20
2023-04-08T10:33:12.411Z,4.97
2023-04-08T10:35:43.034Z,5.00
2023-04-08T10:38:11.754Z,4.93
2023-04-08T10:40:42.841Z,5.33
2023-04-08T10:43:11.527Z,5.40
2023-04-08T10:45:39.767Z,4.73
2023-04-08T10:48:14.968Z,5.07
2023-04-08T10:50:43.069Z,5.73
2023-04-08T10:53:11.767Z,4.80
2023-04-08T10:55:41.074Z,6.13
2023-04-08T10:58:09.765Z,4.93
2023-04-08T11:00:38.824Z,5.23
2023-04-08T11:03:08.750Z,5.10
2023-04-08T11:05:38.774Z,5.67
2023-04-08T11:08:07.055Z,5.20
2023-04-08T11:10:40.004Z,5.87
2023-04-08T11:13:09.902Z,5.67
2023-04-08T11:15:38.408Z,5.37
2023-04-08T11:18:06.883Z,4.67
2023-04-08T11:20:37.265Z,5.13
2023-04-08T11:23:05.287Z,5.83
2023-04-08T11:25:33.305Z,4.93
2023-04-08T11:28:03.404Z,6.40
2023-04-08T11:30:31.783Z,5.30
2023-04-08T11:32:59.797Z,5.13
2023-04-08T11:35:30.268Z,5.53
2023-04-08T11:37:58.725Z,5.37
2023-04-08T11:40:27.467Z,5.93
2023-04-08T11:42:55.388Z,5.90
2023-04-08T11:45:24.764Z,5.90
2023-04-08T11:47:53.045Z,6.20
2023-04-08T11:50:24.775Z,6.20
2023-04-08T11:52:53.275Z,7.27
2023-04-08T11:55:25.545Z,6.13
2023-04-08T11:57:53.860Z,6.07
2023-04-08T12:00:22.518Z,7.10
2023-04-08T12:02:52.697Z,6.63
2023-04-08T12:05:21.413Z,6.90
2023-04-08T12:07:49.319Z,7.13
2023-04-08T12:10:17.230Z,6.40
2023-04-08T12:12:45.144Z,7.07
2023-04-08T12:15:13.440Z,7.33
2023-04-08T12:17:41.458Z,6.87
2023-04-08T12:20:12.050Z,6.60
2023-04-08T12:22:40.501Z,7.00
2023-04-08T12:25:08.857Z,6.70
2023-04-08T12:27:36.739Z,6.57
2023-04-08T12:30:05.379Z,6.87
2023-04-08T12:32:33.641Z,6.67
2023-04-08T12:35:01.622Z,6.93
2023-04-08T12:37:30.951Z,6.63
2023-04-08T12:39:58.882Z,6.27
2023-04-08T12:42:28.029Z,5.93
2023-04-08T12:44:56.423Z,6.27
2023-04-08T12:47:25.655Z,6.97
2023-04-08T12:49:54.298Z,7.20
2023-04-08T12:52:23.057Z,7.33
2023-04-08T12:54:52.356Z,7.43
2023-04-08T12:57:20.250Z,7.00
2023-04-08T12:59:48.938Z,6.50
2023-04-08T13:02:16.884Z,6.93
2023-04-08T13:04:44.927Z,7.30
2023-04-08T13:07:12.840Z,6.80
2023-04-08T13:09:40.729Z,6.33
2023-04-08T13:12:10.719Z,6.50
2023-04-08T13:14:38.598Z,7.83
2023-04-08T13:17:06.605Z,6.33
2023-04-08T13:19:35.063Z,7.63
2023-04-08T13:22:03.121Z,7.00
2023-04-08T13:24:31.226Z,8.47
2023-04-08T13:26:59.321Z,6.63
2023-04-08T13:29:28.609Z,8.23
2023-04-08T13:31:56.553Z,8.87
2023-04-08T13:34:24.551Z,7.80
2023-04-08T13:36:52.534Z,7.50
2023-04-08T13:39:20.496Z,7.17
2023-04-08T13:41:49.102Z,7.73
2023-04-08T13:44:17.658Z,7.33
2023-04-08T13:46:46.935Z,8.00
2023-04-08T13:49:16.142Z,7.20
2023-04-08T13:51:44.049Z,7.53
2023-04-08T13:54:11.958Z,7.80
2023-04-08T13:56:39.887Z,7.83
2023-04-08T13:59:07.825Z,7.60
2023-04-08T14:01:35.842Z,8.67
2023-04-08T14:04:05.290Z,8.70
2023-04-08T14:06:33.767Z,7.63
2023-04-08T14:09:01.645Z,8.50
2023-04-08T14:11:29.519Z,8.10
2023-04-08T14:13:57.521Z,8.70
2023-04-08T14:16:25.641Z,8.43
2023-04-08T14:18:53.891Z,8.47
2023-04-08T14:21:23.348Z,8.43
2023-04-08T14:23:51.217Z,9.23
2023-04-08T14:26:19.094Z,8.33
2023-04-08T14:28:47.647Z,10.07
2023-04-08T14:31:15.847Z,8.07
2023-04-08T14:33:44.115Z,8.63
2023-04-08T14:36:12.272Z,8.70
2023-04-08T14:38:41.668Z,9.67
2023-04-08T14:41:09.690Z,10.43
2023-04-08T14:43:37.592Z,11.43
2023-04-08T14:46:05.666Z,12.43
2023-04-08T14:48:33.617Z,11.43
2023-04-08T14:51:01.723Z,11.30
2023-04-08T14:53:29.632Z,11.13
2023-04-08T14:55:58.890Z,10.47
2023-04-08T14:58:26.892Z,10.60
2023-04-08T15:00:55.698Z,9.87
2023-04-08T15:03:23.860Z,9.47
2023-04-08T15:05:51.909Z,10.33
2023-04-08T15:08:19.980Z,9.87
2023-04-08T15:10:47.889Z,10.20
2023-04-08T15:13:17.395Z,9.77
2023-04-08T15:15:45.559Z,9.53
2023-04-08T15:18:13.479Z,9.00
2023-04-08T15:20:41.536Z,10.13
2023-04-08T15:23:09.495Z,9.10
2023-04-08T15:25:37.400Z,9.03
2023-04-08T15:28:05.318Z,8.13
2023-04-08T15:30:36.216Z,8.53
2023-04-08T15:33:04.735Z,9.07
2023-04-08T15:35:33.014Z,7.80
2023-04-08T15:38:01.825Z,8.97
2023-04-08T15:40:32.208Z,8.73
2023-04-08T15:43:00.148Z,8.43
2023-04-08T15:45:28.578Z,8.10
2023-04-08T15:47:58.018Z,7.93
2023-04-08T15:50:29.838Z,8.03
2023-04-08T15:52:58.010Z,8.87
2023-04-08T15:55:25.972Z,10.20
2023-04-08T15:57:56.685Z,9.23
2023-04-08T16:00:24.877Z,9.97
2023-04-08T16:02:53.127Z,9.13
2023-04-08T16:05:22.674Z,8.87
2023-04-08T16:07:50.583Z,9.10
2023-04-08T16:10:18.698Z,8.17
2023-04-08T16:12:47.386Z,9.27
2023-04-08T16:15:15.391Z,9.00
2023-04-08T16:17:43.354Z,9.37
2023-04-08T16:20:12.322Z,9.30
2023-04-08T16:22:41.628Z,10.10
2023-04-08T16:25:10.511Z,8.73
2023-04-08T16:27:39.165Z,10.00
2023-04-08T16:30:08.313Z,10.17
2023-04-08T16:32:36.882Z,9.63
2023-04-08T16:35:05.133Z,9.57
2023-04-08T16:37:33.673Z,10.43
2023-04-08T16:40:04.409Z,10.70
2023-04-08T16:42:32.891Z,9.73
2023-04-08T16:45:01.290Z,11.10
2023-04-08T16:47:29.242Z,11.00
2023-04-08T16:49:57.170Z,9.10
2023-04-08T16:52:25.045Z,10.30
2023-04-08T16:54:53.517Z,11.60
2023-04-08T16:57:23.536Z,10.13
2023-04-08T16:59:51.568Z,10.77
2023-04-08T17:02:19.615Z,10.67
2023-04-08T17:04:50.134Z,11.33
2023-04-08T17:07:18.170Z,11.00
2023-04-08T17:09:51.372Z,10.90
2023-04-08T17:12:19.351Z,9.93
2023-04-08T17:14:49.332Z,10.70
2023-04-08T17:17:17.332Z,11.30
2023-04-08T17:19:45.240Z,10.90
2023-04-08T17:22:13.144Z,11.37
2023-04-08T17:24:41.062Z,10.87
2023-04-08T17:27:09.181Z,10.80
2023-04-08T17:29:37.260Z,11.50
2023-04-08T17:32:06.821Z,11.70
2023-04-08T17:34:34.713Z,10.93
2023-04-08T17:37:02.782Z,12.20
2023-04-08T17:39:31.610Z,11.63
2023-04-08T17:41:59.643Z,10.97
2023-04-08T17:44:29.746Z,11.80
2023-04-08T17:46:57.897Z,11.37
2023-04-08T17:49:28.991Z,12.87
2023-04-08T17:51:57.732Z,10.60
2023-04-08T17:54:25.648Z,11.87
2023-04-08T17:56:53.792Z,12.40
2023-04-08T17:59:21.835Z,12.83
2023-04-08T18:01:49.856Z,11.93
2023-04-08T18:04:17.997Z,11.37
2023-04-08T18:06:47.360Z,11.83
2023-04-08T18:09:15.323Z,13.60
2023-04-08T18:11:43.313Z,12.00
2023-04-08T18:14:12.557Z,12.13
2023-04-08T18:16:40.548Z,12.73
2023-04-08T18:19:08.716Z,12.60
2023-04-08T18:21:36.741Z,14.73
2023-04-08T18:24:08.672Z,13.00
2023-04-08T18:26:37.138Z,12.53
2023-04-08T18:29:05.052Z,13.33
2023-04-08T18:31:32.950Z,12.97
2023-04-08T18:34:00.866Z,13.67
2023-04-08T18:36:28.770Z,12.97
2023-04-08T18:38:57.257Z,13.83
2023-04-08T18:41:27.947Z,13.73
2023-04-08T18:43:56.604Z,13.50
2023-04-08T18:46:24.580Z,14.80
2023-04-08T18:48:52.489Z,17.23
2023-04-08T18:51:20.384Z,15.80
2023-04-08T18:53:48.381Z,16.37
2023-04-08T18:56:16.804Z,15.60
2023-04-08T18:58:47.102Z,14.50
2023-04-08T19:01:16.273Z,17.47
2023-04-08T19:03:44.542Z,19.77
2023-04-08T19:06:13.654Z,16.10
2023-04-08T19:08:41.570Z,16.13
2023-04-08T19:11:09.509Z,25.13
2023-04-08T19:13:37.647Z,18.27
2023-04-08T19:16:08.158Z,16.97
2023-04-08T19:18:36.143Z,15.90
2023-04-08T19:21:04.050Z,17.93
2023-04-08T19:23:32.132Z,17.27
2023-04-08T19:26:00.126Z,18.30
2023-04-08T19:28:28.015Z,17.20
2023-04-08T19:30:55.967Z,18.07
2023-04-08T19:33:27.502Z,18.03
2023-04-08T19:35:55.757Z,19.27
2023-04-08T19:38:23.959Z,18.23
2023-04-08T19:40:51.868Z,18.23
2023-04-08T19:43:19.758Z,19.87
2023-04-08T19:45:47.852Z,18.50
2023-04-08T19:48:15.761Z,17.83
2023-04-08T19:50:45.044Z,18.37
2023-04-08T19:53:12.928Z,17.93
2023-04-08T19:55:40.885Z,19.63
2023-04-08T19:58:08.794Z,17.83
2023-04-08T20:00:37.425Z,17.80
2023-04-08T20:03:06.274Z,18.43
2023-04-08T20:05:34.474Z,17.93
2023-04-08T20:08:03.829Z,18.90
2023-04-08T20:10:31.766Z,17.13
2023-04-08T20:12:59.717Z,17.87
2023-04-08T20:15:28.144Z,17.90
2023-04-08T20:17:56.565Z,18.83
2023-04-08T20:20:26.651Z,17.87
2023-04-08T20:22:55.617Z,18.40
2023-04-08T20:25:25.042Z,17.17
2023-04-08T20:27:53.149Z,17.63
2023-04-08T20:30:21.149Z,18.03
2023-04-08T20:32:49.191Z,18.60
2023-04-08T20:35:17.487Z,18.63
2023-04-08T20:37:46.291Z,18.40
2023-04-08T20:40:16.388Z,17.17
2023-04-08T20:42:47.047Z,18.13
2023-04-08T20:45:14.940Z,19.03
2023-04-08T20:47:44.625Z,17.37
2023-04-08T20:50:12.977Z,18.87
2023-04-08T20:52:40.931Z,17.43
2023-04-08T20:55:09.763Z,16.33
2023-04-08T20:57:37.649Z,17.17
2023-04-08T21:00:08.230Z,17.03
2023-04-08T21:02:36.457Z,16.93
2023-04-08T21:05:04.930Z,16.53
2023-04-08T21:07:32.828Z,17.67
2023-04-08T21:10:00.999Z,17.27
2023-04-08T21:12:28.938Z,16.73
2023-04-08T21:14:56.811Z,16.77
2023-04-08T21:19:54.060Z,17.47
2023-04-08T21:22:22.015Z,18.70
2023-04-08T21:24:49.924Z,16.93
2023-04-08T21:27:17.846Z,17.30
2023-04-08T21:29:45.753Z,17.23
2023-04-08T21:32:13.699Z,17.77
2023-04-08T21:34:43.406Z,18.97
2023-04-08T21:37:11.325Z,19.80
2023-04-08T21:39:39.236Z,19.27
2023-04-08T21:42:07.190Z,18.87
2023-04-08T21:44:35.094Z,18.67
2023-04-08T21:47:03.028Z,20.77
2023-04-08T21:49:31.621Z,22.20
2023-04-08T21:52:00.940Z,21.83
2023-04-08T21:54:28.811Z,21.60
2023-04-08T21:56:56.947Z,23.97
2023-04-08T21:59:25.002Z,23.63
2023-04-08T22:01:52.962Z,23.50
2023-04-08T22:04:21.081Z,24.50
2023-04-08T22:06:49.867Z,25.20
2023-04-08T22:09:19.481Z,24.83
2023-04-08T22:11:47.385Z,25.50
2023-04-08T22:14:15.577Z,25.60
2023-04-08T22:16:43.606Z,25.67
2023-04-08T22:19:11.776Z,29.07
2023-04-08T22:21:39.666Z,24.93
2023-04-08T22:24:07.734Z,27.70
2023-04-08T22:26:37.063Z,27.37
2023-04-08T22:29:05.036Z,26.87
2023-04-08T22:31:32.929Z,27.23
2023-04-08T22:34:00.818Z,27.17
2023-04-08T22:36:28.731Z,27.90
2023-04-08T22:38:56.611Z,26.57
2023-04-08T22:41:24.958Z,26.10
2023-04-08T22:43:54.210Z,26.37
2023-04-08T22:46:22.161Z,27.23
2023-04-08T22:48:50.462Z,25.63
2023-04-08T22:51:18.710Z,27.93
2023-04-08T22:53:46.722Z,28.60
2023-04-08T22:56:14.940Z,28.13
2023-04-08T22:58:42.926Z,28.17
2023-04-08T23:01:17.581Z,27.90
2023-04-08T23:03:45.629Z,28.17
2023-04-08T23:06:13.580Z,33.53
2023-04-08T23:08:41.584Z,29.70
2023-04-08T23:11:09.500Z,37.47
2023-04-08T23:13:37.893Z,35.50
2023-04-08T23:16:06.401Z,28.60
2023-04-08T23:18:36.003Z,30.80
2023-04-08T23:21:03.969Z,29.17
2023-04-08T23:23:34.668Z,28.90
2023-04-08T23:26:02.925Z,36.97
2023-04-08T23:28:31.094Z,28.53
2023-04-08T23:31:02.539Z,31.53
2023-04-08T23:33:31.329Z,29.10
2023-04-08T23:36:01.018Z,29.27
2023-04-08T23:38:28.987Z,30.93
2023-04-08T23:40:56.992Z,29.57
2023-04-08T23:43:24.896Z,28.77
2023-04-08T23:45:53.340Z,30.37
2023-04-08T23:48:21.218Z,31.00
2023-04-08T23:50:51.701Z,29.70
2023-04-08T23:53:21.300Z,30.70
2023-04-08T23:55:49.478Z,30.60
2023-04-08T23:58:17.421Z,32.50
